Time;durP1;ratioP1;P1;durP2;ratioP2;P2;SDS_P1;SDS_P2;PMS_P1;PMS_P2;Temp;Humidity;BMP_temperature;BMP_pressure;BME280_temperature;BME280_humidity;BME280_pressure;Samples;Min_cycle;Max_cycle;Signal;HPM_P1;HPM_P2
2022/11/09 00:02:13;;;;;;;4.13;1.17;;;11.60;99.90;;;;;;5019662;28;20085;-83
2022/11/09 00:04:39;;;;;;;5.95;1.25;;;11.60;99.90;;;;;;4997715;28;20053;-83
2022/11/09 00:07:05;;;;;;;5.70;1.52;;;11.70;99.90;;;;;;5003670;28;20046;-87
2022/11/09 00:09:31;;;;;;;5.72;1.17;;;11.60;99.90;;;;;;5000604;28;20046;-83
2022/11/09 00:11:58;;;;;;;5.97;1.10;;;11.70;99.90;;;;;;5004980;28;20446;-87
2022/11/09 00:14:25;;;;;;;6.78;1.48;;;11.70;99.90;;;;;;5016434;28;20130;-85
2022/11/09 00:16:50;;;;;;;7.70;1.40;;;11.70;99.90;;;;;;4995003;28;20050;-85
2022/11/09 00:19:16;;;;;;;9.15;1.70;;;11.70;99.90;;;;;;4995538;28;20112;-86
2022/11/09 00:21:42;;;;;;;9.45;1.33;;;11.70;99.90;;;;;;5015212;28;20494;-84
2022/11/09 00:24:09;;;;;;;7.85;1.35;;;11.70;99.90;;;;;;5017362;28;20045;-86
2022/11/09 00:26:35;;;;;;;5.40;1.23;;;11.70;99.90;;;;;;4995332;28;20052;-82
2022/11/09 00:29:01;;;;;;;10.43;1.40;;;11.70;99.90;;;;;;4994709;28;20065;-84
2022/11/09 00:31:27;;;;;;;5.57;1.30;;;11.70;99.90;;;;;;5012485;28;20195;-84
2022/11/09 00:33:55;;;;;;;5.78;1.13;;;11.70;99.90;;;;;;5012480;28;20049;-87
2022/11/09 00:36:22;;;;;;;5.85;1.08;;;11.70;99.90;;;;;;4995308;28;20053;-83
2022/11/09 00:38:56;;;;;;;8.18;1.40;;;11.70;99.90;;;;;;5000728;28;20057;-86
2022/11/09 00:41:22;;;;;;;7.35;1.30;;;11.70;99.90;;;;;;4980413;28;20050;-87
2022/11/09 00:43:48;;;;;;;4.65;1.02;;;11.70;99.90;;;;;;4995362;28;20104;-86
2022/11/09 00:46:15;;;;;;;4.40;1.23;;;11.70;99.90;;;;;;4993410;28;20053;-84
2022/11/09 00:48:41;;;;;;;5.55;0.70;;;11.70;99.90;;;;;;4994166;28;20495;-83
2022/11/09 00:51:08;;;;;;;3.70;0.90;;;11.70;99.90;;;;;;5016971;28;20041;-83
2022/11/09 00:53:33;;;;;;;6.82;1.00;;;11.70;99.90;;;;;;4979079;28;20050;-85
2022/11/09 00:56:02;;;;;;;5.93;1.30;;;11.70;99.90;;;;;;4996501;28;20085;-84
2022/11/09 00:58:30;;;;;;;4.95;1.00;;;11.60;99.90;;;;;;5012184;28;20055;-83
2022/11/09 01:00:58;;;;;;;7.05;1.77;;;11.60;99.90;;;;;;4995331;28;20489;-84
2022/11/09 01:03:25;;;;;;;5.25;1.00;;;11.60;99.90;;;;;;4996433;28;20137;-83
2022/11/09 01:05:51;;;;;;;6.38;0.88;;;11.50;99.90;;;;;;5015268;28;20081;-83
2022/11/09 01:08:18;;;;;;;4.63;0.90;;;11.50;99.90;;;;;;4979149;28;20528;-86
2022/11/09 01:10:46;;;;;;;8.48;0.90;;;11.50;99.90;;;;;;4995805;28;20181;-86
2022/11/09 01:13:14;;;;;;;3.22;0.90;;;11.50;99.90;;;;;;5001665;28;20132;-86
2022/11/09 01:15:51;;;;;;;10.65;1.23;;;11.40;99.90;;;;;;4982025;28;20501;-85
2022/11/09 01:18:18;;;;;;;5.45;0.90;;;11.40;99.90;;;;;;4982102;28;20413;-83
2022/11/09 01:20:46;;;;;;;8.48;1.58;;;11.30;99.90;;;;;;5020241;28;20050;-83
2022/11/09 01:23:17;;;;;;;6.43;1.25;;;11.30;99.90;;;;;;5000049;28;20065;-82
2022/11/09 01:25:43;;;;;;;7.40;1.48;;;11.20;99.90;;;;;;4980336;28;20108;-84
2022/11/09 01:28:10;;;;;;;5.55;1.60;;;11.20;99.90;;;;;;4997397;28;20764;-83
2022/11/09 01:30:38;;;;;;;4.72;1.48;;;11.20;99.90;;;;;;5011835;28;20045;-82
2022/11/09 01:33:05;;;;;;;4.68;1.90;;;11.20;99.90;;;;;;4997519;28;20050;-84
2022/11/09 01:35:36;;;;;;;10.73;2.75;;;11.20;99.90;;;;;;4996332;28;20054;-83
2022/11/09 01:38:04;;;;;;;7.75;1.98;;;11.20;99.90;;;;;;5011612;28;20117;-84
2022/11/09 01:40:31;;;;;;;7.22;2.80;;;11.20;99.90;;;;;;5011844;28;20061;-83
2022/11/09 01:42:57;;;;;;;8.30;2.85;;;11.30;99.90;;;;;;5012744;28;20050;-83
2022/11/09 01:45:24;;;;;;;7.45;2.03;;;11.40;99.90;;;;;;5011608;28;20060;-83
2022/11/09 01:48:10;;;;;;;6.40;2.20;;;11.50;99.90;;;;;;4996318;28;20437;-84
2022/11/09 01:50:57;;;;;;;9.43;2.60;;;11.60;99.90;;;;;;5011716;28;20559;-85
2022/11/09 01:53:28;;;;;;;15.25;2.40;;;11.70;99.90;;;;;;5012603;28;20124;-85
2022/11/09 01:55:57;;;;;;;9.30;2.13;;;11.80;99.90;;;;;;4993847;28;20482;-83
2022/11/09 01:59:01;;;;;;;8.82;1.90;;;11.80;99.90;;;;;;4977010;28;20064;-83
2022/11/09 02:01:28;;;;;;;12.77;2.75;;;11.80;99.90;;;;;;4977454;28;20434;-83
2022/11/09 02:04:02;;;;;;;9.23;1.88;;;11.80;99.90;;;;;;5013738;28;20806;-82
2022/11/09 02:06:30;;;;;;;9.77;3.05;;;11.80;99.90;;;;;;4994407;28;20065;-82
2022/11/09 02:09:06;;;;;;;9.98;2.10;;;11.80;99.90;;;;;;4993894;28;20058;-83
2022/11/09 02:11:33;;;;;;;7.97;2.15;;;11.80;99.90;;;;;;4995787;28;20414;-86
2022/11/09 02:14:01;;;;;;;7.75;2.03;;;11.80;99.90;;;;;;4993176;28;20119;-86
2022/11/09 02:16:28;;;;;;;9.32;2.55;;;11.70;99.90;;;;;;5013767;28;20116;-86
2022/11/09 02:18:57;;;;;;;5.10;1.92;;;11.70;99.90;;;;;;4993381;28;20065;-86
2022/11/09 02:21:26;;;;;;;10.27;1.92;;;11.80;99.90;;;;;;4994037;28;20132;-84
2022/11/09 02:23:52;;;;;;;10.88;3.05;;;11.70;99.90;;;;;;4993269;28;20054;-87
2022/11/09 02:26:31;;;;;;;11.05;2.50;;;11.80;99.90;;;;;;5010713;28;20056;-86
2022/11/09 02:28:58;;;;;;;12.73;2.72;;;11.80;99.90;;;;;;4994383;28;20136;-85
2022/11/09 02:31:29;;;;;;;9.60;2.42;;;11.80;99.90;;;;;;4996286;28;20054;-85
2022/11/09 02:34:04;;;;;;;8.00;2.10;;;11.80;99.90;;;;;;4994461;28;20517;-87
2022/11/09 02:36:30;;;;;;;10.73;2.65;;;11.80;99.90;;;;;;4993384;28;20049;-83
2022/11/09 02:38:56;;;;;;;9.25;2.30;;;11.80;99.90;;;;;;4993087;28;20050;-83
2022/11/09 02:41:23;;;;;;;12.63;3.30;;;11.80;99.90;;;;;;5011130;28;20493;-85
2022/11/09 02:43:52;;;;;;;8.10;2.90;;;11.80;99.90;;;;;;5015340;28;20053;-83
2022/11/09 02:46:33;;;;;;;11.07;3.00;;;11.70;99.90;;;;;;4994734;28;20050;-83
2022/11/09 02:49:00;;;;;;;17.13;3.53;;;11.70;99.90;;;;;;5011031;28;20049;-83
2022/11/09 02:51:26;;;;;;;10.45;3.05;;;11.70;99.90;;;;;;4996028;28;20095;-83
2022/11/09 02:53:52;;;;;;;11.10;3.45;;;11.60;99.90;;;;;;5012374;28;20057;-83
2022/11/09 02:56:18;;;;;;;9.40;3.20;;;11.60;99.90;;;;;;4992808;28;20061;-82
2022/11/09 02:58:44;;;;;;;9.52;3.42;;;11.60;99.90;;;;;;5011800;28;20052;-84
2022/11/09 03:01:10;;;;;;;8.90;3.05;;;11.60;99.90;;;;;;5011780;28;20052;-85
2022/11/09 03:03:36;;;;;;;11.80;3.15;;;11.60;99.90;;;;;;4993134;28;20138;-83
2022/11/09 03:06:02;;;;;;;7.68;2.90;;;11.60;99.90;;;;;;5010113;28;20049;-83
2022/11/09 03:08:28;;;;;;;14.77;3.55;;;11.70;99.90;;;;;;5010107;28;20053;-84
2022/11/09 03:10:54;;;;;;;13.60;3.03;;;11.60;99.90;;;;;;4998243;28;20136;-83
2022/11/09 03:13:21;;;;;;;12.40;3.35;;;11.60;99.90;;;;;;4999176;28;20054;-84
2022/11/09 03:15:47;;;;;;;12.18;3.28;;;11.60;99.90;;;;;;5015050;28;20050;-84
2022/11/09 03:18:12;;;;;;;14.82;3.78;;;11.60;99.90;;;;;;5014034;28;20128;-84
2022/11/09 03:20:38;;;;;;;11.95;3.38;;;11.60;99.90;;;;;;4995889;28;20056;-83
2022/11/09 03:23:04;;;;;;;11.45;3.75;;;11.60;99.90;;;;;;4995721;28;20054;-83
2022/11/09 03:25:30;;;;;;;8.73;2.58;;;11.60;99.90;;;;;;4983973;28;20093;-84
2022/11/09 03:27:58;;;;;;;16.83;2.85;;;11.60;99.90;;;;;;5014517;28;20065;-84
2022/11/09 03:30:24;;;;;;;11.68;2.90;;;11.60;99.90;;;;;;4996522;28;20053;-85
2022/11/09 03:32:50;;;;;;;13.98;2.67;;;11.60;99.90;;;;;;5014897;28;20434;-84
2022/11/09 03:35:16;;;;;;;11.27;2.80;;;11.60;99.90;;;;;;5015368;28;20069;-84
2022/11/09 03:37:42;;;;;;;13.43;3.33;;;11.60;99.90;;;;;;4979782;28;20054;-84
2022/11/09 03:40:08;;;;;;;9.48;2.85;;;11.60;99.90;;;;;;5000996;28;20053;-83
2022/11/09 03:42:34;;;;;;;13.25;2.90;;;11.60;99.90;;;;;;4995784;28;20053;-84
2022/11/09 03:45:00;;;;;;;11.93;2.83;;;11.60;99.90;;;;;;5013132;28;20057;-84
2022/11/09 03:47:26;;;;;;;11.55;2.72;;;11.60;99.90;;;;;;5013584;28;20045;-83
2022/11/09 03:49:51;;;;;;;10.90;2.90;;;11.60;99.90;;;;;;4998689;28;20481;-86
2022/11/09 03:52:17;;;;;;;8.73;2.75;;;11.60;99.90;;;;;;5014059;28;20058;-84
2022/11/09 03:54:43;;;;;;;12.20;2.95;;;11.60;99.90;;;;;;5014959;28;20050;-86
2022/11/09 03:57:09;;;;;;;11.95;2.70;;;11.60;99.90;;;;;;4995747;28;20058;-84
2022/11/09 03:59:35;;;;;;;13.88;2.53;;;11.50;99.90;;;;;;4995207;28;20398;-83
2022/11/09 04:02:01;;;;;;;14.73;2.45;;;11.50;99.90;;;;;;5014243;28;20053;-83
2022/11/09 04:04:27;;;;;;;9.60;3.17;;;11.50;99.90;;;;;;4997193;28;20089;-86
2022/11/09 04:06:53;;;;;;;12.52;2.40;;;11.50;99.90;;;;;;4995374;28;20054;-85
2022/11/09 04:09:19;;;;;;;10.43;2.20;;;11.50;99.90;;;;;;5012750;28;20486;-83
2022/11/09 04:11:45;;;;;;;10.75;2.70;;;11.50;99.90;;;;;;5012480;28;20060;-86
2022/11/09 04:14:11;;;;;;;12.20;2.90;;;11.50;99.90;;;;;;5012254;28;20579;-83
2022/11/09 04:16:38;;;;;;;12.77;2.33;;;11.60;99.90;;;;;;4999947;28;20285;-84
2022/11/09 04:19:04;;;;;;;13.50;2.85;;;11.60;99.90;;;;;;5012704;28;20076;-86
2022/11/09 04:21:32;;;;;;;15.63;2.85;;;11.60;99.90;;;;;;5012438;28;20116;-86
2022/11/09 04:23:58;;;;;;;10.07;2.63;;;11.60;99.90;;;;;;5012492;28;20054;-83
2022/11/09 04:26:24;;;;;;;12.93;2.45;;;11.70;99.90;;;;;;4994997;28;20049;-84
2022/11/09 04:28:50;;;;;;;12.48;3.70;;;11.70;99.90;;;;;;4994654;28;20061;-83
2022/11/09 04:31:15;;;;;;;13.73;2.35;;;11.70;99.90;;;;;;5000378;28;20046;-86
2022/11/09 04:33:41;;;;;;;14.27;3.63;;;11.70;99.90;;;;;;5015018;28;20057;-84
2022/11/09 04:36:08;;;;;;;15.55;2.88;;;11.70;99.90;;;;;;5013592;28;20670;-83
2022/11/09 04:38:35;;;;;;;14.75;2.55;;;11.70;99.90;;;;;;4994829;28;20218;-83
2022/11/09 04:41:02;;;;;;;14.65;2.78;;;11.70;99.90;;;;;;4995120;28;20049;-84
2022/11/09 04:43:28;;;;;;;14.90;2.80;;;11.70;99.90;;;;;;4995074;28;20046;-82
2022/11/09 04:45:57;;;;;;;20.27;2.90;;;11.70;99.90;;;;;;5019037;28;20424;-83
2022/11/09 04:48:23;;;;;;;13.90;2.58;;;11.70;99.90;;;;;;5016778;28;20110;-85
2022/11/09 04:50:49;;;;;;;18.63;3.38;;;11.80;99.90;;;;;;5013201;28;20565;-87
2022/11/09 04:53:15;;;;;;;11.05;3.00;;;11.80;99.90;;;;;;4995135;28;20402;-83
2022/11/09 04:55:41;;;;;;;21.42;3.00;;;11.80;99.90;;;;;;5012385;28;20563;-83
2022/11/09 04:58:08;;;;;;;13.82;2.90;;;11.80;99.90;;;;;;4994361;28;20096;-84
2022/11/09 05:00:34;;;;;;;11.65;2.50;;;11.80;99.90;;;;;;5017525;28;20048;-83
2022/11/09 05:03:02;;;;;;;17.85;2.95;;;11.80;99.90;;;;;;5013587;28;20075;-86
2022/11/09 05:05:28;;;;;;;13.13;2.72;;;11.70;99.90;;;;;;5012965;28;20057;-83
2022/11/09 05:07:54;;;;;;;10.65;2.50;;;11.70;99.90;;;;;;5012658;28;20077;-86
2022/11/09 05:10:20;;;;;;;11.57;2.30;;;11.70;99.90;;;;;;5011665;28;20054;-85
2022/11/09 05:12:46;;;;;;;12.82;2.50;;;11.70;99.90;;;;;;4963794;28;20076;-83
2022/11/09 05:15:12;;;;;;;15.43;2.63;;;11.70;99.90;;;;;;4999996;28;20058;-86
2022/11/09 05:17:38;;;;;;;12.10;2.10;;;11.60;99.90;;;;;;4995023;28;20501;-83
2022/11/09 05:20:05;;;;;;;17.50;2.58;;;11.60;99.90;;;;;;4993654;28;20045;-84
2022/11/09 05:25:15;;;;;;;14.23;3.00;;;11.50;99.90;;;;;;5015923;28;20447;-82
2022/11/09 05:27:44;;;;;;;12.77;2.25;;;11.50;99.90;;;;;;5018351;28;20054;-84
2022/11/09 05:30:11;;;;;;;12.07;2.30;;;11.50;99.90;;;;;;5011264;28;20103;-82
2022/11/09 05:32:40;;;;;;;15.10;2.15;;;11.50;99.90;;;;;;5011110;28;20603;-81
2022/11/09 05:35:06;;;;;;;12.80;2.40;;;11.50;99.90;;;;;;5010574;28;20076;-82
2022/11/09 05:37:32;;;;;;;16.27;3.50;;;11.40;99.90;;;;;;5013873;28;20398;-81
2022/11/09 05:39:57;;;;;;;9.90;2.17;;;11.40;99.90;;;;;;4994170;28;20053;-82
2022/11/09 05:42:24;;;;;;;9.80;2.70;;;11.40;99.90;;;;;;5011141;28;20058;-82
2022/11/09 05:44:50;;;;;;;16.10;2.60;;;11.40;99.90;;;;;;4996607;28;20096;-81
2022/11/09 05:47:17;;;;;;;18.17;3.58;;;11.40;99.90;;;;;;4979103;28;20139;-82
2022/11/09 05:49:43;;;;;;;17.88;3.13;;;11.30;99.90;;;;;;4993494;28;20411;-84
2022/11/09 05:52:09;;;;;;;13.95;2.65;;;11.40;99.90;;;;;;5011760;28;20046;-84
2022/11/09 05:54:35;;;;;;;17.63;3.10;;;11.40;99.90;;;;;;4993522;28;20085;-83
2022/11/09 05:57:01;;;;;;;17.27;4.18;;;11.40;99.90;;;;;;4993688;28;20049;-81
2022/11/09 05:59:27;;;;;;;8.10;2.40;;;11.30;99.90;;;;;;4993377;28;20057;-83
2022/11/09 06:01:53;;;;;;;16.17;2.67;;;11.40;99.90;;;;;;5016144;28;20046;-82
2022/11/09 06:04:19;;;;;;;15.63;3.92;;;11.40;99.90;;;;;;5013066;28;20941;-82
2022/11/09 06:06:45;;;;;;;18.95;3.00;;;11.30;99.90;;;;;;5010034;28;20053;-82
2022/11/09 06:09:11;;;;;;;13.10;2.58;;;11.30;99.90;;;;;;4994602;28;20594;-84
2022/11/09 06:11:37;;;;;;;9.32;2.88;;;11.40;99.90;;;;;;5015642;28;20050;-82
2022/11/09 06:14:02;;;;;;;12.32;2.42;;;11.30;99.90;;;;;;5013467;28;20516;-83
2022/11/09 06:16:28;;;;;;;14.60;2.45;;;11.40;99.90;;;;;;5012350;28;20544;-82
2022/11/09 06:18:55;;;;;;;15.85;4.40;;;11.40;99.90;;;;;;5012713;28;20057;-83
2022/11/09 06:21:20;;;;;;;12.45;3.40;;;11.30;99.90;;;;;;4996354;28;20050;-82
2022/11/09 06:23:47;;;;;;;14.65;2.40;;;11.30;99.90;;;;;;5010955;28;20049;-84
2022/11/09 06:26:13;;;;;;;15.55;3.30;;;11.30;99.90;;;;;;5011915;28;20387;-83
2022/11/09 06:28:40;;;;;;;14.98;3.38;;;11.20;99.90;;;;;;5011991;28;20065;-83
2022/11/09 06:31:09;;;;;;;17.38;2.85;;;11.30;99.90;;;;;;4998476;28;20049;-83
2022/11/09 06:33:35;;;;;;;12.65;2.70;;;11.20;99.90;;;;;;4993175;28;20050;-82
2022/11/09 06:36:02;;;;;;;11.68;3.33;;;11.20;99.90;;;;;;5010549;28;20049;-85
2022/11/09 06:38:28;;;;;;;12.90;3.05;;;11.20;99.90;;;;;;5010743;28;20050;-83
2022/11/09 06:40:57;;;;;;;10.80;2.80;;;11.20;99.90;;;;;;5011405;28;20057;-84
2022/11/09 06:43:23;;;;;;;13.63;2.55;;;11.20;99.90;;;;;;5015404;28;20050;-84
2022/11/09 06:45:50;;;;;;;15.73;3.10;;;11.20;99.90;;;;;;5001584;28;20096;-82
2022/11/09 06:48:17;;;;;;;16.98;3.00;;;11.20;99.90;;;;;;5015202;28;20046;-81
2022/11/09 06:50:43;;;;;;;10.35;2.22;;;11.20;99.90;;;;;;5015337;28;20133;-82
2022/11/09 06:53:12;;;;;;;15.27;3.33;;;11.10;99.90;;;;;;5015763;28;20045;-85
2022/11/09 06:55:39;;;;;;;7.50;2.30;;;11.20;99.90;;;;;;5001726;28;20438;-84
2022/11/09 06:58:14;;;;;;;9.32;2.25;;;11.20;99.90;;;;;;4964809;29;20071;-84
2022/11/09 07:00:41;;;;;;;11.07;2.63;;;11.20;99.90;;;;;;4958117;29;20054;-83
2022/11/09 07:03:12;;;;;;;11.82;4.03;;;11.10;99.90;;;;;;4961170;29;20058;-84
2022/11/09 07:05:38;;;;;;;8.77;2.78;;;11.10;99.90;;;;;;4942160;29;20145;-82
2022/11/09 07:08:04;;;;;;;10.80;2.65;;;11.10;99.90;;;;;;4943448;29;20047;-86
2022/11/09 07:10:30;;;;;;;12.32;2.53;;;11.10;99.90;;;;;;4938952;29;20622;-84
2022/11/09 07:12:57;;;;;;;12.02;3.55;;;11.10;99.90;;;;;;4953745;28;20043;-85
2022/11/09 07:15:24;;;;;;;10.43;2.65;;;11.10;99.90;;;;;;4919764;29;20881;-86
2022/11/09 07:17:50;;;;;;;10.93;2.42;;;11.20;99.90;;;;;;4918155;29;20102;-86
2022/11/09 07:20:16;;;;;;;8.85;2.50;;;11.10;99.90;;;;;;4918891;29;20058;-80
2022/11/09 07:22:42;;;;;;;10.75;2.25;;;11.10;99.90;;;;;;4937892;29;20059;-85
2022/11/09 07:25:12;;;;;;;11.07;2.47;;;11.10;99.90;;;;;;4923756;29;20055;-83
2022/11/09 07:27:38;;;;;;;12.00;2.35;;;11.10;99.90;;;;;;4925399;29;20062;-86
2022/11/09 07:30:05;;;;;;;19.67;3.28;;;11.10;99.90;;;;;;4989463;28;20050;-86
2022/11/09 07:32:35;;;;;;;13.90;2.30;;;11.10;99.90;;;;;;4977111;28;20049;-84
2022/11/09 07:35:03;;;;;;;11.32;2.63;;;11.10;99.90;;;;;;4976516;28;20098;-81
2022/11/09 07:37:29;;;;;;;12.90;3.00;;;11.10;99.90;;;;;;4994707;28;20096;-82
2022/11/09 07:39:57;;;;;;;12.25;2.40;;;11.10;99.90;;;;;;4994523;28;20050;-84
2022/11/09 07:42:24;;;;;;;12.90;2.38;;;11.10;99.90;;;;;;4963956;28;20137;-83
2022/11/09 07:44:50;;;;;;;11.63;2.38;;;11.10;99.90;;;;;;4980239;28;20054;-83
2022/11/09 07:47:18;;;;;;;13.88;2.70;;;11.10;99.90;;;;;;4963179;28;20043;-83
2022/11/09 07:49:44;;;;;;;11.40;2.55;;;11.20;99.90;;;;;;4978444;28;20058;-83
2022/11/09 07:52:10;;;;;;;13.05;2.60;;;11.20;99.90;;;;;;4980255;28;20050;-83
2022/11/09 07:54:37;;;;;;;13.25;2.05;;;11.20;99.90;;;;;;4987198;28;20042;-82
2022/11/09 07:57:04;;;;;;;9.70;2.20;;;11.30;99.90;;;;;;4988599;28;20380;-85
2022/11/09 07:59:30;;;;;;;9.07;2.30;;;11.30;99.90;;;;;;5003724;28;20065;-83
2022/11/09 08:01:57;;;;;;;10.57;1.98;;;11.40;99.90;;;;;;4984569;28;20157;-84
2022/11/09 08:04:23;;;;;;;12.63;2.97;;;11.50;99.90;;;;;;4976467;28;20054;-82
2022/11/09 08:06:51;;;;;;;9.38;1.70;;;11.60;99.90;;;;;;4997097;28;20113;-82
2022/11/09 08:09:18;;;;;;;13.50;2.42;;;11.70;99.90;;;;;;4976225;28;20050;-81
2022/11/09 08:11:43;;;;;;;11.38;2.47;;;11.60;99.90;;;;;;4976471;28;20062;-82
2022/11/09 08:14:10;;;;;;;11.02;3.35;;;11.60;99.90;;;;;;5004657;28;20524;-81
2022/11/09 08:16:36;;;;;;;12.05;2.55;;;11.70;99.90;;;;;;4995346;28;20466;-81
2022/11/09 08:19:02;;;;;;;13.63;2.88;;;11.70;99.90;;;;;;5021120;28;20101;-80
2022/11/09 08:21:28;;;;;;;12.77;2.15;;;11.80;99.90;;;;;;5016524;28;20150;-84
2022/11/09 08:23:53;;;;;;;11.50;2.50;;;11.80;99.90;;;;;;5013636;28;20509;-83
2022/11/09 08:26:19;;;;;;;12.63;3.45;;;11.80;99.90;;;;;;4999031;28;20054;-84
2022/11/09 08:28:45;;;;;;;11.10;2.83;;;11.90;99.90;;;;;;4995802;28;20053;-82
2022/11/09 08:31:11;;;;;;;13.35;2.60;;;11.90;99.90;;;;;;5012319;28;20108;-84
2022/11/09 08:33:40;;;;;;;9.45;3.08;;;11.90;99.90;;;;;;5012353;28;20053;-82
2022/11/09 08:36:14;;;;;;;11.90;2.85;;;11.90;99.90;;;;;;5016537;28;20049;-81
2022/11/09 08:38:41;;;;;;;12.52;3.78;;;12.00;99.90;;;;;;5012650;28;20528;-85
2022/11/09 08:41:08;;;;;;;12.30;2.45;;;12.00;99.90;;;;;;4996193;28;20060;-82
2022/11/09 08:43:34;;;;;;;12.90;2.42;;;12.00;99.90;;;;;;4994178;28;20050;-83
2022/11/09 08:46:00;;;;;;;16.45;3.05;;;12.10;99.90;;;;;;5012881;28;20116;-82
2022/11/09 08:48:26;;;;;;;14.38;2.47;;;12.10;99.90;;;;;;5013683;28;20394;-82
2022/11/09 08:50:58;;;;;;;11.45;2.58;;;12.10;99.90;;;;;;4996933;28;20061;-82
2022/11/09 08:53:26;;;;;;;10.32;2.20;;;12.20;99.90;;;;;;4994552;28;20069;-83
2022/11/09 08:55:53;;;;;;;16.77;2.78;;;12.20;99.90;;;;;;5013182;28;20057;-86
2022/11/09 08:58:19;;;;;;;10.57;2.42;;;12.30;99.90;;;;;;4995248;28;20049;-82
2022/11/09 09:00:45;;;;;;;11.52;2.53;;;12.30;99.90;;;;;;5012272;28;20088;-83
2022/11/09 09:03:12;;;;;;;13.30;2.72;;;12.40;99.90;;;;;;4997610;28;20050;-82
2022/11/09 09:05:38;;;;;;;13.35;2.50;;;12.40;99.90;;;;;;4994836;28;20060;-83
2022/11/09 09:08:05;;;;;;;15.27;3.92;;;12.40;99.90;;;;;;4993857;28;20046;-82
2022/11/09 09:10:34;;;;;;;16.05;3.22;;;12.50;99.90;;;;;;5011815;28;20069;-82
2022/11/09 09:13:01;;;;;;;11.93;2.67;;;12.50;99.90;;;;;;5012477;28;20111;-83
2022/11/09 09:15:27;;;;;;;10.50;2.20;;;12.60;99.90;;;;;;5014213;28;20092;-81
2022/11/09 09:17:53;;;;;;;13.32;3.28;;;12.60;99.90;;;;;;5016709;28;20046;-82
2022/11/09 09:20:19;;;;;;;12.50;2.10;;;12.60;99.90;;;;;;4994431;28;20064;-84
2022/11/09 09:22:45;;;;;;;11.10;2.28;;;12.60;99.90;;;;;;5011702;28;20064;-83
2022/11/09 09:25:14;;;;;;;10.68;2.03;;;12.70;99.90;;;;;;4995895;28;20053;-82
2022/11/09 09:27:42;;;;;;;22.27;3.97;;;12.70;99.90;;;;;;4997015;28;20453;-85
2022/11/09 09:30:08;;;;;;;11.80;3.25;;;12.70;99.90;;;;;;4996438;28;20148;-84
2022/11/09 09:32:34;;;;;;;10.52;2.25;;;12.80;99.90;;;;;;4996408;28;20047;-85
2022/11/09 09:35:00;;;;;;;10.23;2.20;;;12.90;99.90;;;;;;5011660;28;20138;-86
2022/11/09 09:37:26;;;;;;;12.52;2.70;;;12.90;99.90;;;;;;5012482;28;20042;-88
2022/11/09 09:39:52;;;;;;;9.73;2.65;;;13.00;99.90;;;;;;5013085;28;20049;-87
2022/11/09 09:42:30;;;;;;;11.73;2.45;;;13.00;99.90;;;;;;4980662;28;20663;-83
2022/11/09 09:45:16;;;;;;;9.32;2.08;;;13.10;99.90;;;;;;5013066;28;20054;-85
2022/11/09 09:48:24;;;;;;;14.50;2.83;;;13.10;99.90;;;;;;4993551;28;20050;-88
2022/11/09 09:50:59;;;;;;;9.77;2.00;;;13.10;99.90;;;;;;4931225;28;20054;-88
2022/11/09 09:54:26;;;;;;;9.95;2.13;;;13.20;99.90;;;;;;5011117;28;20054;-86
2022/11/09 09:56:55;;;;;;;13.15;3.42;;;13.20;99.90;;;;;;4914376;29;20404;-87
2022/11/09 09:59:44;;;;;;;23.70;3.50;;;13.20;99.90;;;;;;5014439;28;20050;-87
2022/11/09 10:02:25;;;;;;;11.65;2.67;;;13.40;99.90;;;;;;4967473;28;20057;-84
2022/11/09 10:04:54;;;;;;;15.52;2.67;;;13.50;99.90;;;;;;5011294;28;20532;-85
2022/11/09 10:07:38;;;;;;;13.20;2.95;;;13.50;99.90;;;;;;4993971;28;20049;-82
2022/11/09 10:10:48;;;;;;;10.10;3.17;;;13.70;99.90;;;;;;5011602;28;20057;-83
2022/11/09 10:13:13;;;;;;;13.43;2.92;;;13.80;99.90;;;;;;4996320;28;20054;-83
2022/11/09 10:16:07;;;;;;;15.05;3.30;;;14.00;99.90;;;;;;4993641;28;20108;-82
2022/11/09 10:18:42;;;;;;;11.50;2.05;;;14.10;99.90;;;;;;5016805;28;20057;-87
2022/11/09 10:21:17;;;;;;;11.02;2.40;;;14.30;99.90;;;;;;4999332;28;20092;-85
2022/11/09 10:24:02;;;;;;;15.52;2.38;;;14.30;99.90;;;;;;5017554;28;20129;-82
2022/11/09 10:26:38;;;;;;;11.60;2.90;;;14.30;99.90;;;;;;5002715;28;20050;-83
2022/11/09 10:29:34;;;;;;;11.68;2.72;;;14.30;99.90;;;;;;5006748;28;20085;-85
2022/11/09 10:32:08;;;;;;;16.35;2.65;;;14.30;99.90;;;;;;4934961;28;20116;-83
2022/11/09 10:34:53;;;;;;;10.70;2.33;;;14.20;99.90;;;;;;5002448;28;20056;-89
2022/11/09 10:37:41;;;;;;;10.75;2.53;;;14.10;99.90;;;;;;5017225;28;20054;-84
2022/11/09 10:40:07;;;;;;;15.05;2.58;;;14.10;99.90;;;;;;5000350;28;20107;-86
2022/11/09 10:42:33;;;;;;;13.32;3.70;;;13.90;99.90;;;;;;4999513;28;20549;-88
2022/11/09 10:45:19;;;;;;;15.10;3.03;;;13.80;99.90;;;;;;5019901;28;20056;-88
2022/11/09 10:47:50;;;;;;;11.68;3.00;;;13.70;99.90;;;;;;5004011;28;20125;-85
2022/11/09 10:50:33;;;;;;;12.00;3.65;;;13.60;99.90;;;;;;4998355;28;20093;-89
2022/11/09 10:53:18;;;;;;;12.52;3.58;;;13.50;99.90;;;;;;5014902;28;20408;-84
2022/11/09 10:55:54;;;;;;;13.65;3.20;;;13.40;99.90;;;;;;5015234;28;20053;-83
2022/11/09 10:58:31;;;;;;;17.42;4.65;;;13.40;99.90;;;;;;5015281;28;20192;-85
2022/11/09 11:01:16;;;;;;;16.15;3.67;;;13.30;99.90;;;;;;4997270;28;20057;-84
2022/11/09 11:03:43;;;;;;;11.43;3.30;;;13.30;99.90;;;;;;5016621;28;20556;-89
2022/11/09 11:06:16;;;;;;;12.45;3.60;;;13.30;99.90;;;;;;5017390;28;20050;-85
2022/11/09 11:08:45;;;;;;;13.32;3.72;;;13.50;99.90;;;;;;5014172;28;20050;-82
2022/11/09 11:11:13;;;;;;;13.30;3.97;;;13.50;99.90;;;;;;5014132;28;20100;-81
2022/11/09 11:13:40;;;;;;;12.35;4.13;;;13.50;99.90;;;;;;5014285;28;20111;-82
2022/11/09 11:16:34;;;;;;;12.10;3.60;;;13.40;99.90;;;;;;5018004;28;20061;-82
2022/11/09 11:19:01;;;;;;;17.05;4.43;;;13.30;99.90;;;;;;5015451;28;20100;-82
2022/11/09 11:21:28;;;;;;;20.05;3.35;;;13.30;99.90;;;;;;5014133;28;20046;-82
2022/11/09 11:24:14;;;;;;;18.20;4.43;;;13.30;99.90;;;;;;5013698;28;20049;-86
2022/11/09 11:27:15;;;;;;;11.18;2.88;;;13.30;99.90;;;;;;5013583;28;20050;-84
2022/11/09 11:29:53;;;;;;;14.27;3.65;;;13.30;99.90;;;;;;4998658;28;20049;-82
2022/11/09 11:32:20;;;;;;;9.57;3.13;;;13.30;99.90;;;;;;4997840;28;20052;-86
2022/11/09 11:34:47;;;;;;;18.83;4.60;;;13.30;99.90;;;;;;5020410;28;20100;-88
2022/11/09 11:37:22;;;;;;;8.52;4.20;;;13.40;99.90;;;;;;5014430;28;20082;-83
2022/11/09 11:40:09;;;;;;;15.40;3.30;;;13.40;99.90;;;;;;5013608;28;20065;-82
2022/11/09 11:42:55;;;;;;;12.25;3.88;;;13.40;99.90;;;;;;4995774;28;20502;-86
2022/11/09 11:45:40;;;;;;;11.23;4.78;;;13.40;99.90;;;;;;4995793;28;20560;-84
2022/11/09 11:48:22;;;;;;;18.75;4.60;;;13.30;99.90;;;;;;4998158;28;20513;-84
2022/11/09 11:51:18;;;;;;;14.25;3.30;;;13.30;99.90;;;;;;5017494;28;20054;-85
2022/11/09 11:54:15;;;;;;;11.20;3.30;;;13.20;99.90;;;;;;4993284;28;20132;-82
2022/11/09 11:57:13;;;;;;;16.73;3.13;;;13.30;99.90;;;;;;4996188;28;20097;-88
2022/11/09 11:59:54;;;;;;;12.15;3.90;;;13.20;99.90;;;;;;4971601;28;20049;-86
2022/11/09 12:02:44;;;;;;;14.60;3.55;;;13.20;99.90;;;;;;4995690;28;20375;-84
2022/11/09 12:05:49;;;;;;;8.85;3.13;;;13.20;99.90;;;;;;5013219;28;20058;-83
2022/11/09 12:08:21;;;;;;;15.60;4.40;;;13.10;99.90;;;;;;4995997;28;20050;-83
2022/11/09 12:10:58;;;;;;;11.90;3.50;;;13.10;99.90;;;;;;5021386;28;20109;-86
2022/11/09 12:13:27;;;;;;;9.50;3.78;;;13.00;99.90;;;;;;5014928;28;20119;-88
2022/11/09 12:16:06;;;;;;;13.57;4.15;;;13.00;99.90;;;;;;4995894;28;20054;-86
2022/11/09 12:18:53;;;;;;;14.23;4.47;;;12.80;99.90;;;;;;5012929;28;20049;-82
2022/11/09 12:21:39;;;;;;;15.20;3.75;;;12.60;99.90;;;;;;4994763;28;20060;-85
2022/11/09 12:24:23;;;;;;;11.25;3.95;;;12.30;99.90;;;;;;4994977;28;20050;-82
2022/11/09 12:27:07;;;;;;;14.20;3.88;;;12.20;99.90;;;;;;5018882;28;20069;-84
2022/11/09 12:29:59;;;;;;;9.75;3.35;;;12.00;99.90;;;;;;5015196;28;20054;-86
2022/11/09 12:32:38;;;;;;;14.32;4.10;;;11.80;99.90;;;;;;5013645;28;20077;-84
2022/11/09 12:35:19;;;;;;;16.60;4.35;;;11.70;99.90;;;;;;5012411;28;20131;-85
2022/11/09 12:38:12;;;;;;;8.85;2.38;;;11.60;99.90;;;;;;5012757;28;20054;-82
2022/11/09 12:40:50;;;;;;;5.20;1.42;;;11.50;99.90;;;;;;5012517;28;20049;-82
2022/11/09 12:43:30;;;;;;;3.05;0.77;;;11.30;99.90;;;;;;5013693;28;20609;-81
2022/11/09 12:46:01;;;;;;;3.40;2.10;;;11.20;99.90;;;;;;5017113;28;20074;-85
2022/11/09 12:48:33;;;;;;;2.15;0.80;;;11.10;99.90;;;;;;5012574;28;20524;-86
2022/11/09 12:51:01;;;;;;;6.55;1.10;;;11.10;99.90;;;;;;4980573;28;20046;-82
2022/11/09 12:53:32;;;;;;;3.75;1.00;;;11.00;99.90;;;;;;5012456;28;20061;-85
2022/11/09 12:56:04;;;;;;;8.48;1.17;;;11.00;99.90;;;;;;4979178;28;20108;-84
2022/11/09 12:58:32;;;;;;;4.60;1.40;;;11.00;99.90;;;;;;5012146;28;20046;-85
2022/11/09 13:01:13;;;;;;;3.90;1.10;;;10.90;99.90;;;;;;4994486;28;20092;-82